Time;durP1;ratioP1;P1;durP2;ratioP2;P2;SDS_P1;SDS_P2;PMS_P1;PMS_P2;Temp;Humidity;BMP_temperature;BMP_pressure;BME280_temperature;BME280_humidity;BME280_pressure;Samples;Min_cycle;Max_cycle;Signal;HPM_P1;HPM_P2
2021/12/09 00:00:43;;;;;;;13.90;7.30;;;1.30;99.90;;;;;;4985839;28;20138;-79
2021/12/09 00:03:13;;;;;;;15.30;7.30;;;1.30;99.90;;;;;;5006177;28;20431;-79
2021/12/09 00:05:43;;;;;;;12.83;7.00;;;1.30;99.90;;;;;;5008438;28;20042;-79
2021/12/09 00:08:09;;;;;;;12.87;7.10;;;1.30;99.90;;;;;;4967837;28;20045;-79
2021/12/09 00:10:35;;;;;;;14.67;7.33;;;1.30;99.90;;;;;;4993201;28;20077;-79
2021/12/09 00:13:04;;;;;;;12.83;7.03;;;1.30;99.90;;;;;;4981068;28;20058;-79
2021/12/09 00:15:29;;;;;;;16.00;8.00;;;1.40;99.90;;;;;;4991977;28;20064;-79
2021/12/09 00:17:55;;;;;;;15.00;8.00;;;1.30;99.90;;;;;;4991057;28;20046;-79
2021/12/09 00:20:20;;;;;;;11.40;6.90;;;1.30;99.90;;;;;;4990846;28;20407;-79
2021/12/09 00:22:46;;;;;;;13.57;7.87;;;1.30;99.90;;;;;;4986162;28;20046;-79
2021/12/09 00:25:14;;;;;;;12.90;7.97;;;1.40;99.90;;;;;;5005628;28;20504;-79
2021/12/09 00:27:40;;;;;;;13.53;7.87;;;1.40;99.90;;;;;;5007558;28;20400;-79
2021/12/09 00:30:07;;;;;;;13.33;8.00;;;1.40;99.90;;;;;;4990436;28;20407;-79
2021/12/09 00:32:32;;;;;;;13.67;7.30;;;1.40;99.90;;;;;;4983083;28;20050;-80
2021/12/09 00:34:58;;;;;;;18.30;8.37;;;1.30;99.90;;;;;;5008909;28;20503;-80
2021/12/09 00:37:53;;;;;;;13.77;8.03;;;1.30;99.90;;;;;;4981858;28;20042;-80
2021/12/09 00:40:12;;;;;;;15.13;7.90;;;1.30;99.90;;;;;;4974491;28;20049;-80
2021/12/09 00:42:37;;;;;;;17.43;8.00;;;1.30;99.90;;;;;;5005791;28;20095;-79
2021/12/09 00:45:03;;;;;;;14.57;8.03;;;1.30;99.90;;;;;;4992463;28;20492;-80
2021/12/09 00:47:30;;;;;;;15.37;8.67;;;1.40;99.90;;;;;;4978466;28;20664;-80
2021/12/09 00:49:56;;;;;;;16.07;8.57;;;1.30;99.90;;;;;;5008952;28;20117;-79
2021/12/09 00:52:25;;;;;;;16.20;8.70;;;1.30;99.90;;;;;;4975604;28;20466;-79
2021/12/09 00:54:52;;;;;;;18.13;8.57;;;1.30;99.90;;;;;;4983670;28;20145;-80
2021/12/09 00:57:18;;;;;;;17.47;9.03;;;1.30;99.90;;;;;;4973305;28;20070;-80
2021/12/09 00:59:44;;;;;;;14.13;8.63;;;1.30;99.90;;;;;;4957254;28;20038;-79
2021/12/09 01:02:10;;;;;;;13.50;9.30;;;1.30;99.90;;;;;;4974503;28;20092;-80
2021/12/09 01:04:37;;;;;;;14.67;9.40;;;1.20;99.90;;;;;;4992015;28;20116;-80
2021/12/09 01:07:03;;;;;;;14.27;9.10;;;1.20;99.90;;;;;;4985432;28;20035;-79
2021/12/09 01:09:29;;;;;;;17.20;9.60;;;1.20;99.90;;;;;;4965600;28;20034;-80
2021/12/09 01:11:55;;;;;;;18.10;9.57;;;1.20;99.90;;;;;;4989558;28;20037;-79
2021/12/09 01:14:20;;;;;;;15.63;9.20;;;1.20;99.90;;;;;;4992126;28;20046;-79
2021/12/09 01:16:46;;;;;;;14.70;9.17;;;1.20;99.90;;;;;;4973851;28;20515;-79
2021/12/09 01:19:12;;;;;;;19.57;9.97;;;1.20;99.90;;;;;;4985467;28;20045;-79
2021/12/09 01:21:37;;;;;;;18.63;10.70;;;1.10;99.90;;;;;;4990640;28;20035;-79
2021/12/09 01:24:04;;;;;;;16.00;10.00;;;1.20;99.90;;;;;;4988196;28;20048;-80
2021/12/09 01:26:30;;;;;;;19.43;9.97;;;1.20;99.90;;;;;;4985359;28;20038;-80
2021/12/09 01:29:01;;;;;;;20.67;9.77;;;1.20;99.90;;;;;;5004506;28;20098;-80
2021/12/09 01:31:32;;;;;;;18.47;10.90;;;1.20;99.90;;;;;;5007525;28;20098;-79
2021/12/09 01:34:01;;;;;;;16.33;10.10;;;1.20;99.90;;;;;;4959322;28;20035;-79
2021/12/09 01:36:29;;;;;;;16.37;9.60;;;1.20;99.90;;;;;;5004825;28;20102;-79
2021/12/09 01:38:55;;;;;;;14.83;9.90;;;1.10;99.90;;;;;;4978455;28;20045;-79
2021/12/09 01:41:20;;;;;;;17.10;10.23;;;1.10;99.90;;;;;;4986202;28;20035;-79
2021/12/09 01:43:47;;;;;;;16.80;10.53;;;1.10;99.90;;;;;;4989881;28;20137;-79
2021/12/09 01:46:15;;;;;;;18.33;10.17;;;1.10;99.90;;;;;;4974132;28;20046;-79
2021/12/09 01:48:43;;;;;;;16.53;10.60;;;1.10;99.90;;;;;;4984264;28;20039;-80
2021/12/09 01:51:09;;;;;;;16.97;10.70;;;1.10;99.90;;;;;;4975418;28;20117;-79
2021/12/09 01:53:35;;;;;;;16.10;10.60;;;0.90;99.90;;;;;;5004308;28;20496;-79
2021/12/09 01:56:02;;;;;;;20.00;10.30;;;1.10;99.90;;;;;;5004388;28;20082;-79
2021/12/09 01:58:29;;;;;;;16.87;9.93;;;1.00;99.90;;;;;;4989225;28;20030;-79
2021/12/09 02:00:54;;;;;;;22.17;10.60;;;1.00;99.90;;;;;;5008441;28;20077;-79
2021/12/09 02:03:20;;;;;;;17.47;11.37;;;1.00;99.90;;;;;;4966690;28;20050;-79
2021/12/09 02:05:46;;;;;;;21.33;11.50;;;1.00;99.90;;;;;;4969486;28;20038;-79
2021/12/09 02:08:13;;;;;;;22.37;11.33;;;0.90;99.90;;;;;;4976215;28;20065;-79
2021/12/09 02:10:40;;;;;;;20.80;11.13;;;0.90;99.90;;;;;;4974952;28;20070;-79
2021/12/09 02:13:06;;;;;;;20.23;10.83;;;0.90;99.90;;;;;;4989570;28;20053;-79
2021/12/09 02:15:32;;;;;;;17.70;11.40;;;0.90;99.90;;;;;;4990677;28;20125;-79
2021/12/09 02:17:58;;;;;;;19.93;11.27;;;0.90;99.90;;;;;;4989755;28;20053;-79
2021/12/09 02:20:28;;;;;;;17.97;11.17;;;0.80;99.90;;;;;;4983051;28;20055;-79
2021/12/09 02:22:56;;;;;;;21.87;11.80;;;0.80;99.90;;;;;;4987538;28;20057;-79
2021/12/09 02:25:22;;;;;;;20.93;11.60;;;0.80;99.90;;;;;;4981266;28;20053;-79
2021/12/09 02:27:47;;;;;;;18.53;11.57;;;0.80;99.90;;;;;;4978864;28;20046;-79
2021/12/09 02:30:14;;;;;;;16.57;11.60;;;0.80;99.90;;;;;;4985729;28;20038;-79
2021/12/09 02:32:40;;;;;;;22.77;12.53;;;0.80;99.90;;;;;;5004141;28;20039;-79
2021/12/09 02:35:06;;;;;;;19.00;12.17;;;0.80;99.90;;;;;;5006788;28;20042;-79
2021/12/09 02:37:31;;;;;;;19.37;12.40;;;0.80;99.90;;;;;;4987545;28;20041;-79
2021/12/09 02:39:57;;;;;;;21.93;12.70;;;0.80;99.90;;;;;;4987106;28;20404;-79
2021/12/09 02:42:24;;;;;;;19.73;11.73;;;0.80;99.90;;;;;;4981509;28;20506;-79
2021/12/09 02:44:50;;;;;;;20.03;11.70;;;0.80;99.90;;;;;;5008327;28;20531;-79
2021/12/09 02:47:16;;;;;;;20.87;11.03;;;0.80;99.90;;;;;;5007822;28;20527;-79
2021/12/09 02:49:42;;;;;;;20.40;12.07;;;0.70;99.90;;;;;;5007888;28;20051;-79
2021/12/09 02:52:08;;;;;;;18.47;11.90;;;0.70;99.90;;;;;;4990976;28;20046;-79
2021/12/09 02:54:34;;;;;;;21.00;12.23;;;0.70;99.90;;;;;;4983688;28;20088;-79
2021/12/09 02:57:04;;;;;;;22.70;12.33;;;0.70;99.90;;;;;;4995047;28;20045;-79
2021/12/09 02:59:31;;;;;;;21.17;12.20;;;0.70;99.90;;;;;;4982421;28;20053;-79
2021/12/09 03:02:00;;;;;;;20.20;12.10;;;0.70;99.90;;;;;;4993751;28;20046;-79
2021/12/09 03:04:53;;;;;;;24.17;11.80;;;0.70;99.90;;;;;;4993068;28;20053;-80
2021/12/09 03:07:30;;;;;;;20.83;11.80;;;0.70;99.90;;;;;;4977347;28;20400;-79
2021/12/09 03:10:03;;;;;;;22.90;12.40;;;0.70;99.90;;;;;;4979502;28;20070;-80
2021/12/09 03:12:34;;;;;;;21.17;12.30;;;0.70;99.90;;;;;;4977267;28;20043;-79
2021/12/09 03:15:03;;;;;;;22.27;12.93;;;0.70;99.90;;;;;;4989775;28;20411;-80
2021/12/09 03:17:29;;;;;;;20.73;12.40;;;0.70;99.90;;;;;;4984195;28;20128;-79
2021/12/09 03:19:55;;;;;;;21.93;13.00;;;0.70;99.90;;;;;;4965282;28;20404;-79
2021/12/09 03:22:21;;;;;;;21.63;12.70;;;0.60;99.90;;;;;;4989409;28;20404;-79
2021/12/09 03:24:48;;;;;;;23.63;13.03;;;0.60;99.90;;;;;;4978246;28;20081;-79
2021/12/09 03:27:14;;;;;;;19.23;12.50;;;0.60;99.90;;;;;;4994248;28;20050;-79
2021/12/09 03:29:40;;;;;;;22.50;12.47;;;0.60;99.90;;;;;;4983521;28;20058;-79
2021/12/09 03:32:10;;;;;;;22.53;12.70;;;0.60;99.90;;;;;;5006814;28;20042;-79
2021/12/09 03:34:36;;;;;;;21.87;12.30;;;0.50;99.90;;;;;;5010504;28;20046;-79
2021/12/09 03:37:06;;;;;;;20.77;11.60;;;0.50;99.90;;;;;;4993882;28;20041;-79
2021/12/09 03:39:36;;;;;;;17.63;11.93;;;0.50;99.90;;;;;;4988138;28;20457;-79
2021/12/09 03:42:04;;;;;;;21.90;12.63;;;0.50;99.90;;;;;;4988115;28;20039;-79
2021/12/09 03:44:30;;;;;;;22.27;12.47;;;0.50;99.90;;;;;;5009937;28;20046;-79
2021/12/09 03:46:58;;;;;;;23.07;13.17;;;0.50;99.90;;;;;;4994101;28;20088;-79
2021/12/09 03:49:24;;;;;;;18.57;12.30;;;0.50;99.90;;;;;;4993203;28;20177;-79
2021/12/09 03:51:52;;;;;;;19.67;12.20;;;0.40;99.90;;;;;;4976736;28;20125;-79
2021/12/09 03:54:18;;;;;;;19.13;12.90;;;0.40;99.90;;;;;;4993528;28;20117;-79
2021/12/09 03:56:43;;;;;;;23.73;12.57;;;0.40;99.90;;;;;;4977220;28;20124;-79
2021/12/09 03:59:10;;;;;;;22.27;12.27;;;0.40;99.90;;;;;;4985922;28;20404;-79
2021/12/09 04:01:38;;;;;;;20.67;12.43;;;0.40;99.90;;;;;;4978763;28;20038;-79
2021/12/09 04:04:05;;;;;;;20.83;12.40;;;0.40;99.90;;;;;;4966820;28;20057;-79
2021/12/09 04:06:31;;;;;;;21.63;13.03;;;0.40;99.90;;;;;;4987718;28;20089;-79
2021/12/09 04:08:57;;;;;;;22.60;12.80;;;0.40;99.90;;;;;;4977292;28;20200;-79
2021/12/09 04:11:23;;;;;;;23.70;13.10;;;0.40;99.90;;;;;;4981328;28;20362;-79
2021/12/09 04:13:49;;;;;;;22.50;13.67;;;0.40;99.90;;;;;;5008256;28;20034;-79
2021/12/09 04:16:14;;;;;;;19.17;12.90;;;0.40;99.90;;;;;;5005809;28;20035;-79
2021/12/09 04:18:41;;;;;;;20.33;12.50;;;0.40;99.90;;;;;;5009216;28;20122;-79
2021/12/09 04:21:08;;;;;;;22.80;13.87;;;0.40;99.90;;;;;;4974095;28;20039;-79
2021/12/09 04:23:34;;;;;;;23.97;13.43;;;0.40;99.90;;;;;;4973938;28;20039;-79
2021/12/09 04:26:00;;;;;;;24.00;13.47;;;0.40;99.90;;;;;;4973528;28;20106;-79
2021/12/09 04:28:26;;;;;;;23.67;13.97;;;0.40;99.90;;;;;;5008698;28;20042;-79
2021/12/09 04:30:52;;;;;;;21.20;13.13;;;0.40;99.90;;;;;;4992918;28;20522;-79
2021/12/09 04:33:18;;;;;;;28.37;13.13;;;0.40;99.90;;;;;;4988327;28;20045;-79
2021/12/09 04:35:44;;;;;;;22.13;13.43;;;0.40;99.90;;;;;;4991723;28;20042;-79
2021/12/09 04:38:10;;;;;;;21.83;12.80;;;0.40;99.90;;;;;;5008214;28;20042;-79
2021/12/09 04:40:36;;;;;;;25.03;13.20;;;0.40;99.90;;;;;;4989565;28;20046;-79
2021/12/09 04:43:02;;;;;;;21.60;12.63;;;0.40;99.90;;;;;;4992372;28;20049;-79
2021/12/09 04:45:28;;;;;;;19.07;13.00;;;0.30;99.90;;;;;;4978845;28;20409;-79
2021/12/09 04:47:54;;;;;;;20.77;12.67;;;0.30;99.90;;;;;;4974053;28;20137;-79
2021/12/09 04:50:20;;;;;;;27.17;13.80;;;0.30;99.90;;;;;;4975541;28;20527;-79
2021/12/09 04:52:45;;;;;;;22.10;13.67;;;0.20;99.90;;;;;;5005199;28;20049;-78
2021/12/09 04:55:11;;;;;;;22.03;13.40;;;0.20;99.90;;;;;;4980193;28;20496;-79
2021/12/09 04:57:42;;;;;;;21.47;13.07;;;0.20;99.90;;;;;;5005518;28;20061;-78
2021/12/09 05:00:11;;;;;;;23.70;13.03;;;0.20;99.90;;;;;;5005756;28;20049;-78
2021/12/09 05:03:00;;;;;;;22.63;13.77;;;0.20;99.90;;;;;;4980309;28;20042;-78
2021/12/09 05:05:22;;;;;;;22.13;12.93;;;0.20;99.90;;;;;;4972668;28;20564;-79
2021/12/09 05:07:48;;;;;;;20.70;13.23;;;0.20;99.90;;;;;;4986332;28;20068;-78
2021/12/09 05:10:14;;;;;;;22.10;13.37;;;0.20;99.90;;;;;;4974732;28;20042;-78
2021/12/09 05:12:40;;;;;;;24.10;13.83;;;0.20;99.90;;;;;;4973534;28;20038;-78
2021/12/09 05:15:07;;;;;;;26.43;13.73;;;0.20;99.90;;;;;;5005098;28;20035;-78
2021/12/09 05:17:32;;;;;;;21.67;13.23;;;0.10;99.90;;;;;;5004736;28;20078;-78
2021/12/09 05:19:58;;;;;;;25.17;14.73;;;0.20;99.90;;;;;;5007755;28;20070;-78
2021/12/09 05:22:23;;;;;;;20.93;13.27;;;0.20;99.90;;;;;;4979540;28;20053;-78
2021/12/09 05:24:50;;;;;;;20.27;13.50;;;0.20;99.90;;;;;;4981830;28;20047;-78
2021/12/09 05:27:17;;;;;;;23.67;13.23;;;0.10;99.90;;;;;;4972047;28;20722;-78
2021/12/09 05:29:44;;;;;;;22.77;13.73;;;0.20;99.90;;;;;;4983719;28;20516;-78
2021/12/09 05:32:11;;;;;;;25.10;13.50;;;0.10;99.90;;;;;;4991127;28;20129;-78
2021/12/09 05:34:49;;;;;;;25.13;15.60;;;0.10;99.90;;;;;;4990042;28;20038;-78
2021/12/09 05:37:20;;;;;;;22.90;14.60;;;0.10;99.90;;;;;;4967082;28;20049;-78
2021/12/09 05:39:47;;;;;;;23.47;14.23;;;0.20;99.90;;;;;;4986951;28;20065;-78
2021/12/09 05:42:16;;;;;;;27.07;14.37;;;0.20;99.90;;;;;;4978306;28;20038;-78
2021/12/09 05:44:42;;;;;;;23.73;14.20;;;0.20;99.90;;;;;;4991530;28;20084;-78
2021/12/09 05:47:08;;;;;;;24.13;14.37;;;0.20;99.90;;;;;;4979097;28;20088;-79
2021/12/09 05:49:37;;;;;;;24.57;14.03;;;0.20;99.90;;;;;;5002597;28;20076;-78
2021/12/09 05:52:04;;;;;;;24.70;14.27;;;0.20;99.90;;;;;;5010518;28;20056;-78
2021/12/09 05:54:30;;;;;;;25.83;14.10;;;0.10;99.90;;;;;;4991654;28;20050;-78
2021/12/09 05:56:56;;;;;;;25.43;14.30;;;0.20;99.90;;;;;;5003693;28;20404;-78
2021/12/09 05:59:21;;;;;;;24.97;14.63;;;0.10;99.90;;;;;;5006376;28;20081;-78
2021/12/09 06:01:47;;;;;;;24.70;15.17;;;0.10;99.90;;;;;;4970341;28;20038;-78
2021/12/09 06:04:13;;;;;;;25.50;14.40;;;0.10;99.90;;;;;;4979230;28;20046;-78
2021/12/09 06:06:39;;;;;;;24.63;14.40;;;0.10;99.90;;;;;;5004152;28;20043;-78
2021/12/09 06:09:07;;;;;;;28.60;14.87;;;0.10;99.90;;;;;;4955323;28;20034;-78
2021/12/09 06:11:34;;;;;;;25.20;14.93;;;0.10;99.90;;;;;;4971253;28;20050;-78
2021/12/09 06:14:01;;;;;;;21.10;14.10;;;0.10;99.90;;;;;;4970543;28;20045;-78
2021/12/09 06:16:27;;;;;;;22.93;14.40;;;0.10;99.90;;;;;;4955349;28;20046;-78
2021/12/09 06:18:52;;;;;;;23.57;14.50;;;0.10;99.90;;;;;;4971399;28;20042;-78
2021/12/09 06:21:19;;;;;;;24.63;14.27;;;0.10;99.90;;;;;;4989881;28;20097;-77
2021/12/09 06:23:45;;;;;;;24.10;14.60;;;0.10;99.90;;;;;;4990742;28;20466;-77
2021/12/09 06:26:11;;;;;;;24.43;14.80;;;0.10;99.90;;;;;;4990589;28;20095;-77
2021/12/09 06:28:38;;;;;;;29.87;15.00;;;0.20;99.90;;;;;;4990683;28;20042;-77
2021/12/09 06:31:05;;;;;;;30.43;14.77;;;0.20;99.90;;;;;;4990530;28;20524;-77
2021/12/09 06:33:31;;;;;;;24.00;14.10;;;0.10;99.90;;;;;;4990384;28;20125;-77
2021/12/09 06:35:57;;;;;;;23.10;14.53;;;0.10;99.90;;;;;;4990822;28;20046;-77
2021/12/09 06:38:23;;;;;;;25.43;15.60;;;0.10;99.90;;;;;;4971191;28;20174;-77
2021/12/09 06:40:48;;;;;;;24.13;13.40;;;0.00;99.90;;;;;;4972966;28;20065;-77
2021/12/09 06:43:15;;;;;;;25.23;14.87;;;-0.10;99.90;;;;;;4956563;28;20046;-77
2021/12/09 06:45:41;;;;;;;25.10;14.33;;;0.00;99.90;;;;;;4982567;28;20049;-77
2021/12/09 06:48:07;;;;;;;27.47;14.83;;;-0.10;99.90;;;;;;4971127;28;20042;-76
2021/12/09 06:50:33;;;;;;;24.63;14.77;;;-0.10;99.90;;;;;;4955014;28;20039;-77
2021/12/09 06:52:58;;;;;;;22.73;13.93;;;-0.10;99.90;;;;;;4970832;28;20121;-77
2021/12/09 06:55:24;;;;;;;24.67;14.27;;;-0.10;99.90;;;;;;4970862;28;20126;-77
2021/12/09 06:57:50;;;;;;;25.57;14.17;;;-0.10;99.90;;;;;;4971446;28;20270;-76
2021/12/09 07:00:20;;;;;;;26.67;13.77;;;-0.20;99.90;;;;;;4971005;28;20038;-76
2021/12/09 07:02:46;;;;;;;23.50;13.97;;;-0.20;99.90;;;;;;4986537;28;20046;-76
2021/12/09 07:05:13;;;;;;;25.73;13.83;;;-0.20;99.90;;;;;;4989549;28;20064;-76
2021/12/09 07:07:39;;;;;;;23.90;13.47;;;-0.30;99.90;;;;;;4990031;28;20034;-76
2021/12/09 07:10:12;;;;;;;23.80;13.67;;;-0.30;99.90;;;;;;4973755;28;20427;-76
2021/12/09 07:12:38;;;;;;;25.15;13.43;;;-0.30;99.90;;;;;;4989402;28;20038;-76
2021/12/09 07:15:07;;;;;;;22.37;13.57;;;-0.30;99.90;;;;;;4989301;28;20038;-76
2021/12/09 07:17:33;;;;;;;25.50;13.60;;;-0.30;99.90;;;;;;4989481;28;20039;-76
2021/12/09 07:19:58;;;;;;;25.30;14.57;;;-0.30;99.90;;;;;;4990002;28;20042;-76
2021/12/09 07:22:24;;;;;;;25.70;13.60;;;-0.30;99.90;;;;;;4989454;28;20050;-76
2021/12/09 07:24:49;;;;;;;25.73;14.60;;;-0.20;99.90;;;;;;4974013;28;20518;-76
2021/12/09 07:27:15;;;;;;;24.37;14.30;;;-0.30;99.90;;;;;;4993392;28;20049;-76
2021/12/09 07:29:41;;;;;;;27.07;14.77;;;-0.30;99.90;;;;;;4976675;28;20125;-76
2021/12/09 07:32:07;;;;;;;25.03;13.83;;;-0.30;99.90;;;;;;5006604;28;20043;-76
2021/12/09 07:34:32;;;;;;;25.80;14.23;;;-0.30;99.90;;;;;;4987891;28;20042;-76
2021/12/09 07:37:03;;;;;;;27.97;14.40;;;-0.30;99.90;;;;;;4988679;28;20390;-76
2021/12/09 07:39:28;;;;;;;27.57;13.93;;;-0.30;99.90;;;;;;4981869;28;20053;-76
2021/12/09 07:41:56;;;;;;;26.93;15.60;;;-0.30;99.90;;;;;;4989582;28;20488;-76
2021/12/09 07:44:22;;;;;;;28.20;15.37;;;-0.30;99.90;;;;;;4986970;28;20121;-76
2021/12/09 07:46:48;;;;;;;30.13;15.50;;;-0.20;99.90;;;;;;4978505;28;20038;-76
2021/12/09 07:49:14;;;;;;;23.03;13.93;;;-0.20;99.90;;;;;;4987005;28;20669;-76
2021/12/09 07:51:40;;;;;;;25.03;15.13;;;-0.20;99.90;;;;;;4977214;28;20047;-76
2021/12/09 07:54:06;;;;;;;24.10;14.90;;;-0.20;99.90;;;;;;4980696;28;20050;-76
2021/12/09 07:56:32;;;;;;;25.93;14.40;;;-0.20;99.90;;;;;;4983793;28;20412;-77
2021/12/09 07:58:58;;;;;;;30.57;15.03;;;-0.20;99.90;;;;;;4977066;28;20034;-77
2021/12/09 08:01:23;;;;;;;25.70;14.07;;;-0.20;99.90;;;;;;4972308;28;20485;-77
2021/12/09 08:03:49;;;;;;;23.77;14.33;;;-0.20;99.90;;;;;;4982026;28;20077;-77
2021/12/09 08:06:15;;;;;;;23.23;14.10;;;-0.20;99.90;;;;;;4992897;28;20492;-77
2021/12/09 08:08:41;;;;;;;26.07;14.00;;;-0.30;99.90;;;;;;4993153;28;20511;-77
2021/12/09 08:11:07;;;;;;;29.10;13.77;;;-0.20;99.90;;;;;;4992812;28;20034;-77
2021/12/09 08:13:33;;;;;;;26.40;14.77;;;-0.20;99.90;;;;;;4992440;28;20066;-77
2021/12/09 08:16:00;;;;;;;27.97;14.90;;;-0.20;99.90;;;;;;4992752;28;20046;-77
2021/12/09 08:18:27;;;;;;;24.87;14.10;;;-0.20;99.90;;;;;;4992763;28;20488;-77
2021/12/09 08:20:59;;;;;;;28.03;15.07;;;-0.10;99.90;;;;;;4992941;28;20042;-77
2021/12/09 08:23:25;;;;;;;23.27;13.37;;;-0.10;99.90;;;;;;4992970;28;20042;-77
2021/12/09 08:25:52;;;;;;;23.77;14.63;;;-0.10;99.90;;;;;;4992512;28;20038;-77
2021/12/09 08:28:18;;;;;;;23.70;14.50;;;-0.10;99.90;;;;;;4992501;28;20125;-77
2021/12/09 08:30:44;;;;;;;28.03;14.43;;;-0.10;99.90;;;;;;4992371;28;20217;-77
2021/12/09 08:33:10;;;;;;;27.87;13.93;;;0.00;99.90;;;;;;4992359;28;20035;-77
2021/12/09 08:35:36;;;;;;;26.93;14.20;;;0.00;99.90;;;;;;4992372;28;20048;-77
2021/12/09 08:38:04;;;;;;;25.40;14.50;;;0.00;99.90;;;;;;4991696;28;20480;-78
2021/12/09 08:40:30;;;;;;;29.87;14.17;;;0.00;99.90;;;;;;4976259;28;20061;-77
2021/12/09 08:42:56;;;;;;;24.67;14.33;;;0.00;99.90;;;;;;4987869;28;20047;-78
2021/12/09 08:45:21;;;;;;;30.33;15.23;;;0.00;99.90;;;;;;4972747;28;20035;-78
2021/12/09 08:47:49;;;;;;;28.10;15.17;;;0.10;99.90;;;;;;4972957;28;20034;-77
2021/12/09 08:50:18;;;;;;;26.20;14.10;;;0.10;99.90;;;;;;4972777;28;20049;-77
2021/12/09 08:52:45;;;;;;;28.40;14.23;;;0.10;99.90;;;;;;4972402;28;20042;-78
2021/12/09 08:55:10;;;;;;;29.90;15.07;;;0.10;99.90;;;;;;4972297;28;20508;-78
2021/12/09 08:57:37;;;;;;;29.50;14.47;;;0.20;99.90;;;;;;4972618;28;20042;-78
2021/12/09 09:00:09;;;;;;;31.23;14.57;;;0.20;99.90;;;;;;4956640;28;20053;-78
2021/12/09 09:02:36;;;;;;;26.83;14.53;;;0.20;99.90;;;;;;4972321;28;20500;-78
2021/12/09 09:05:03;;;;;;;27.47;14.23;;;0.30;99.90;;;;;;4972430;28;20051;-78
2021/12/09 09:07:29;;;;;;;25.70;15.13;;;0.30;99.90;;;;;;4972318;28;20050;-78
2021/12/09 09:09:54;;;;;;;28.80;14.90;;;0.30;99.90;;;;;;4972676;28;20429;-78
2021/12/09 09:12:20;;;;;;;27.70;14.97;;;0.30;99.90;;;;;;4956099;28;20474;-78
2021/12/09 09:14:46;;;;;;;30.33;14.47;;;0.40;99.90;;;;;;4956266;28;20460;-78
2021/12/09 09:17:11;;;;;;;29.13;14.67;;;0.40;99.90;;;;;;4972259;28;20121;-78
2021/12/09 09:19:37;;;;;;;25.87;14.60;;;0.40;99.90;;;;;;4972240;28;20125;-78
2021/12/09 09:22:04;;;;;;;23.97;13.40;;;0.40;99.90;;;;;;4971888;28;20086;-78
2021/12/09 09:24:30;;;;;;;24.97;13.97;;;0.50;99.90;;;;;;4972198;28;20057;-78
2021/12/09 09:26:56;;;;;;;25.60;14.33;;;0.50;99.90;;;;;;4956167;28;20046;-78
2021/12/09 09:29:21;;;;;;;25.27;14.03;;;0.60;99.90;;;;;;4972063;28;20042;-78
2021/12/09 09:31:47;;;;;;;26.27;13.47;;;0.60;99.90;;;;;;4971799;28;20402;-78
2021/12/09 09:34:13;;;;;;;23.33;13.23;;;0.70;99.90;;;;;;4972072;28;20053;-78
2021/12/09 09:36:44;;;;;;;25.53;13.57;;;0.70;99.90;;;;;;4971850;28;20042;-79
2021/12/09 09:39:19;;;;;;;25.87;13.27;;;0.70;99.90;;;;;;4971985;28;20043;-78
2021/12/09 09:41:54;;;;;;;25.13;13.70;;;0.80;99.90;;;;;;4972040;28;20451;-79
2021/12/09 09:44:22;;;;;;;22.73;12.33;;;0.90;99.90;;;;;;4964243;28;20045;-78
2021/12/09 09:46:48;;;;;;;29.87;13.30;;;1.00;99.90;;;;;;4990925;28;20091;-78
2021/12/09 09:49:14;;;;;;;25.80;13.33;;;1.00;99.90;;;;;;4990983;28;20046;-78
2021/12/09 09:51:40;;;;;;;21.67;12.67;;;1.00;99.90;;;;;;4990904;28;20049;-78
2021/12/09 09:54:06;;;;;;;26.20;12.90;;;1.10;99.90;;;;;;4990547;28;20122;-77
2021/12/09 09:56:34;;;;;;;26.10;12.83;;;1.20;99.90;;;;;;4991000;28;20039;-78
2021/12/09 09:59:05;;;;;;;21.97;12.63;;;1.20;99.90;;;;;;4989037;28;20504;-78
2021/12/09 10:01:33;;;;;;;25.83;13.30;;;1.30;99.90;;;;;;4971973;28;20058;-77
2021/12/09 10:04:12;;;;;;;24.53;13.17;;;1.40;99.90;;;;;;4955110;28;20177;-77
2021/12/09 10:06:40;;;;;;;24.23;11.97;;;1.40;99.90;;;;;;4955691;28;20046;-77
2021/12/09 10:09:08;;;;;;;20.60;12.20;;;1.40;99.90;;;;;;4971632;28;20059;-77
2021/12/09 10:11:34;;;;;;;21.63;12.43;;;1.50;99.90;;;;;;4971240;28;20154;-77
2021/12/09 10:14:12;;;;;;;26.07;12.73;;;1.50;99.90;;;;;;4971133;28;20050;-77
2021/12/09 10:16:42;;;;;;;25.63;13.10;;;1.50;99.90;;;;;;4982966;28;20035;-77
2021/12/09 10:19:22;;;;;;;22.87;12.63;;;1.50;99.90;;;;;;4982631;28;20039;-77
2021/12/09 10:21:48;;;;;;;21.17;12.07;;;1.60;99.90;;;;;;4972465;28;20058;-77
2021/12/09 10:24:16;;;;;;;18.90;11.10;;;1.70;99.90;;;;;;4982229;28;20073;-77
2021/12/09 10:26:46;;;;;;;21.20;11.27;;;1.70;99.90;;;;;;4969620;28;20461;-77
2021/12/09 10:29:28;;;;;;;19.73;12.20;;;1.80;99.90;;;;;;4981007;28;20471;-77
2021/12/09 10:31:59;;;;;;;19.57;11.37;;;1.80;99.90;;;;;;4981916;28;20438;-77
2021/12/09 10:34:42;;;;;;;23.67;12.50;;;1.80;99.90;;;;;;4977972;28;20460;-77
2021/12/09 10:37:20;;;;;;;23.55;12.05;;;1.90;99.90;;;;;;4970418;28;20114;-77
2021/12/09 10:39:59;;;;;;;26.60;12.20;;;2.00;99.90;;;;;;4979341;28;20416;-77
2021/12/09 10:42:29;;;;;;;23.30;11.97;;;2.00;99.90;;;;;;4989679;28;20042;-77
2021/12/09 10:45:03;;;;;;;18.57;11.53;;;2.10;99.90;;;;;;4987254;28;20483;-78
2021/12/09 10:47:36;;;;;;;20.47;12.03;;;2.10;99.90;;;;;;4974395;28;20042;-77
2021/12/09 10:50:16;;;;;;;22.80;12.13;;;2.10;99.90;;;;;;4964048;28;20100;-77
2021/12/09 10:52:49;;;;;;;24.63;12.03;;;2.10;99.90;;;;;;4985473;28;20061;-77
2021/12/09 10:55:23;;;;;;;22.87;11.93;;;2.20;99.90;;;;;;4974878;28;20114;-77
2021/12/09 10:58:17;;;;;;;21.23;13.03;;;2.20;99.90;;;;;;4976680;28;20038;-77
2021/12/09 11:00:55;;;;;;;29.02;12.65;;;2.30;99.90;;;;;;4982365;28;20112;-77
2021/12/09 11:03:35;;;;;;;21.33;12.70;;;2.20;99.90;;;;;;4981725;28;20035;-77
2021/12/09 11:06:04;;;;;;;22.60;12.57;;;2.20;99.90;;;;;;4984554;28;20057;-77
2021/12/09 11:08:46;;;;;;;20.87;13.23;;;2.20;99.90;;;;;;4977821;28;20057;-77
2021/12/09 11:11:18;;;;;;;28.90;15.00;;;2.20;99.90;;;;;;4981172;28;20053;-77
2021/12/09 11:13:51;;;;;;;24.60;13.30;;;2.20;99.90;;;;;;5000285;28;20100;-77
2021/12/09 11:16:30;;;;;;;23.02;12.98;;;2.20;99.90;;;;;;4974846;28;20401;-77
2021/12/09 11:19:05;;;;;;;23.47;13.43;;;2.20;99.90;;;;;;4976738;28;20096;-78
2021/12/09 11:21:34;;;;;;;25.47;14.23;;;2.20;99.90;;;;;;4988635;28;20054;-78
2021/12/09 11:24:06;;;;;;;20.03;12.00;;;2.20;99.90;;;;;;4993004;28;20459;-78
2021/12/09 11:29:10;;;;;;;25.53;13.20;;;2.20;99.90;;;;;;5000872;28;20046;-78
2021/12/09 11:31:45;;;;;;;25.40;12.73;;;2.20;99.90;;;;;;4981998;28;20129;-78
2021/12/09 11:34:16;;;;;;;22.90;13.07;;;2.10;99.90;;;;;;4974249;28;20046;-77
2021/12/09 11:36:50;;;;;;;21.93;12.13;;;2.10;99.90;;;;;;4984205;28;20396;-77
2021/12/09 11:39:21;;;;;;;;;;;2.20;99.90;;;;;;4981605;28;20081;-78
2021/12/09 11:41:48;;;;;;;27.30;13.03;;;2.20;99.90;;;;;;4980828;28;19926;-77
2021/12/09 11:44:15;;;;;;;26.33;13.80;;;2.20;99.90;;;;;;4992902;28;20108;-78
2021/12/09 11:46:43;;;;;;;25.30;13.80;;;2.20;99.90;;;;;;5003475;28;20043;-78
2021/12/09 11:49:09;;;;;;;26.97;13.90;;;2.20;99.90;;;;;;4963459;28;20043;-78
2021/12/09 11:51:35;;;;;;;28.57;14.47;;;2.20;99.90;;;;;;4977274;28;20043;-78
2021/12/09 11:54:08;;;;;;;28.47;13.50;;;2.20;99.90;;;;;;4990563;28;20067;-78
2021/12/09 12:07:31;;;;;;;30.30;15.33;;;2.30;99.90;;;;;;5001381;28;20116;-78
2021/12/09 12:21:26;;;;;;;30.33;13.37;;;2.40;99.90;;;;;;4992479;28;20460;-78
2021/12/09 12:24:13;;;;;;;27.73;14.13;;;2.40;99.90;;;;;;4992148;28;20054;-78
2021/12/09 12:40:47;;;;;;;23.70;14.03;;;2.50;99.90;;;;;;4983700;28;20129;-78
2021/12/09 12:43:32;;;;;;;25.07;13.80;;;2.50;99.90;;;;;;4990052;28;20042;-78
2021/12/09 12:48:43;;;;;;;29.13;14.30;;;2.50;99.90;;;;;;4991406;28;20043;-77
2021/12/09 12:54:19;;;;;;;27.70;14.23;;;2.60;99.90;;;;;;4989342;28;20374;-78
2021/12/09 12:56:55;;;;;;;28.37;15.17;;;2.60;99.90;;;;;;4987136;28;20053;-77
2021/12/09 12:59:33;;;;;;;34.67;16.20;;;2.60;99.90;;;;;;4991624;28;20117;-78
2021/12/09 13:02:13;;;;;;;32.33;15.68;;;2.60;99.90;;;;;;4991171;28;20407;-78
2021/12/09 13:10:47;;;;;;;29.58;15.75;;;2.70;99.90;;;;;;4991816;28;20049;-78
2021/12/09 13:16:09;;;;;;;34.40;17.17;;;2.70;99.90;;;;;;4991880;28;20446;-77
2021/12/09 13:21:55;;;;;;;31.02;16.63;;;2.80;99.90;;;;;;4991624;28;20058;-78
2021/12/09 13:24:44;;;;;;;34.30;16.63;;;2.80;99.90;;;;;;4991053;28;20056;-77
2021/12/09 13:49:07;;;;;;;32.53;15.77;;;2.80;99.90;;;;;;4990667;28;20054;-78
2021/12/09 13:54:27;;;;;;;31.02;16.88;;;2.90;99.90;;;;;;4990848;28;20045;-78
2021/12/09 13:57:04;;;;;;;32.47;15.17;;;2.90;99.90;;;;;;4991192;28;20401;-78
2021/12/09 13:59:34;;;;;;;31.17;16.42;;;2.90;99.90;;;;;;4974846;28;20492;-78
2021/12/09 14:02:17;;;;;;;31.60;16.02;;;2.90;99.90;;;;;;4990588;28;20088;-78
2021/12/09 14:04:42;;;;;;;27.48;14.20;;;2.90;99.90;;;;;;4974961;28;20405;-78